Bellevue, Wisconsin
Current Conditions -  °F | °C
As of 1:53 AM on Sunday 21 Dec 2014 (Local Time) from KGRB Reporting Station
Haze Haze  
Wind Chill: 24°   Ceiling: 2700
Heat Index: 30°   Visibility: 5mi
Dew Point: 27°   Wind: 6mph
Humidity: 88%   Direction: 180°S
Pressure: 30.2"   Gusts: NA
Location:  44.4827°N, 87.887°W
Report Text: KGRB 210753Z AUTO 18005KT 5SM BR BKN027 OVC037 M01/M03 A3020 RMK AO2 SLP237 T10111028
Loading
Personal Weather Stations






























Interactive Weather Map New forecast layout! Learn more

10-Day Weather Forecast

Advertisements
Track Severe Weather on mobile